Aviation Digital Data Service (ADDS)

Output produced by TAFs form (0710 UTC 20 July 2018)
found at http://www.aviationweather.gov/adds/tafs/
 
METAR text: LYBE 200700Z 30007KT 270V330 CAVOK 23/17 Q1013 NOSIG
Conditions at: LYBE (BELGRADE/SURCIN , CS) observed 0700 UTC 20 July 2018
Temperature: 23.0°C (73°F)
Dewpoint: 17.0°C (63°F) [RH = 69%]
Pressure (altimeter): 29.91 inches Hg (1013.0 mb)
Winds: from the WNW (300 degrees) at 8 MPH (7 knots; 3.6 m/s)
Visibility: 6 or more miles (10+ km)
Ceiling: ceiling and visibility are OK
Clouds: unknown
Weather: no significant weather observed at this time

Forecast for: LYBE (BELGRADE/SURCIN , CS)
Text: TAF LYBE 200500Z 2006/2106 25006KT 9999 SCT040 TX29/2013Z TN16/2103Z
Forecast period: 0600 UTC 20 July 2018 to 0600 UTC 21 July 2018
Forecast type: FROM: standard forecast or significant change
Winds: from the WSW (250 degrees) at 7 MPH (6 knots; 3.1 m/s)
Visibility: 6 or more miles (10+ km)
Clouds: scattered clouds at 4000 feet AGL
Weather: no significant weather forecast for this period
Text: TEMPO 2009/2016 31012KT
Forecast period: 0900 to 1600 UTC 20 July 2018
Forecast type: TEMPORARY: The following changes expected for less than half the time period
Winds: from the NW (310 degrees) at 14 MPH (12 knots; 6.2 m/s)
Weather: no significant weather forecast for this period